Time;durP1;ratioP1;P1;durP2;ratioP2;P2;SDS_P1;SDS_P2;PMS_P1;PMS_P2;Temp;Humidity;BMP_temperature;BMP_pressure;BME280_temperature;BME280_humidity;BME280_pressure;Samples;Min_cycle;Max_cycle;Signal;HPM_P1;HPM_P2
2023/06/06 00:01:27;;;;;;;20.00;6.60;;;;;;;16.10;100.00;101526.31;5006929;28;20061;-74
2023/06/06 00:03:55;;;;;;;14.52;5.85;;;;;;;16.03;100.00;101520.88;5005070;28;20081;-74
2023/06/06 00:06:24;;;;;;;16.60;5.82;;;;;;;16.00;100.00;101527.34;5008849;28;20060;-73
2023/06/06 00:08:52;;;;;;;13.52;5.70;;;;;;;15.97;100.00;101516.22;5017719;28;20053;-74
2023/06/06 00:11:20;;;;;;;19.40;6.80;;;;;;;15.89;100.00;101526.00;5006596;28;20049;-74
2023/06/06 00:13:49;;;;;;;17.83;6.25;;;;;;;15.84;100.00;101518.91;5020827;28;20547;-72
2023/06/06 00:16:17;;;;;;;15.75;5.50;;;;;;;15.83;100.00;101522.94;5033906;28;20080;-72
2023/06/06 00:18:45;;;;;;;18.15;6.13;;;;;;;15.76;100.00;101520.28;5015107;28;20050;-73
2023/06/06 00:21:12;;;;;;;14.00;6.00;;;;;;;15.75;100.00;101529.13;5007151;28;20050;-73
2023/06/06 00:23:39;;;;;;;16.05;6.45;;;;;;;15.75;100.00;101521.50;5013949;28;20153;-73
2023/06/06 00:26:06;;;;;;;13.90;5.88;;;;;;;15.73;100.00;101523.94;5008848;28;20054;-73
2023/06/06 00:28:32;;;;;;;13.77;6.30;;;;;;;15.70;100.00;101519.19;5006910;28;20125;-74
2023/06/06 00:30:59;;;;;;;13.00;5.50;;;;;;;15.72;100.00;101521.56;5021221;28;20096;-74
2023/06/06 00:33:25;;;;;;;16.40;6.40;;;;;;;15.66;100.00;101524.09;5007792;28;20178;-73
2023/06/06 00:35:52;;;;;;;19.20;6.28;;;;;;;15.55;100.00;101517.94;5010114;28;20053;-73
2023/06/06 00:38:18;;;;;;;13.57;5.93;;;;;;;15.56;100.00;101518.75;5001644;28;20568;-74
2023/06/06 00:40:45;;;;;;;14.43;5.82;;;;;;;15.47;100.00;101524.94;5008142;28;20144;-73
2023/06/06 00:43:11;;;;;;;13.50;6.10;;;;;;;15.44;100.00;101519.38;5006691;28;20077;-76
2023/06/06 00:45:38;;;;;;;18.13;6.60;;;;;;;15.43;100.00;101520.59;5015423;28;20081;-73
2023/06/06 00:48:05;;;;;;;16.30;6.00;;;;;;;15.38;100.00;101527.50;5012346;28;20054;-73
2023/06/06 00:50:34;;;;;;;15.35;5.82;;;;;;;15.35;100.00;101522.72;5008134;28;20586;-73
2023/06/06 00:53:03;;;;;;;15.48;6.80;;;;;;;15.35;100.00;101519.16;5006868;28;20104;-73
2023/06/06 00:55:31;;;;;;;14.02;5.90;;;;;;;15.26;100.00;101528.09;5005915;28;20050;-74
2023/06/06 00:58:00;;;;;;;14.55;6.38;;;;;;;15.23;100.00;101523.38;5006201;28;20057;-73
2023/06/06 01:00:32;;;;;;;14.75;6.00;;;;;;;15.15;100.00;101526.75;5010256;28;20045;-73
2023/06/06 01:03:03;;;;;;;13.75;5.78;;;;;;;15.12;100.00;101524.81;5013516;28;20587;-73
2023/06/06 01:05:30;;;;;;;15.60;6.45;;;;;;;15.10;100.00;101525.25;5006288;28;20056;-74
2023/06/06 01:07:57;;;;;;;16.83;6.05;;;;;;;15.05;100.00;101520.13;5009207;28;20073;-73
2023/06/06 01:10:24;;;;;;;13.95;6.45;;;;;;;15.06;100.00;101524.53;5013466;28;20049;-75
2023/06/06 01:13:16;;;;;;;16.30;6.22;;;;;;;15.05;100.00;101527.75;5020174;28;20045;-73
2023/06/06 01:15:43;;;;;;;15.73;6.82;;;;;;;15.00;100.00;101529.03;5017434;28;20050;-75
2023/06/06 01:18:12;;;;;;;15.50;6.40;;;;;;;14.94;100.00;101530.72;5010357;28;20068;-73
2023/06/06 01:20:42;;;;;;;14.48;6.38;;;;;;;14.91;100.00;101528.78;5012038;28;20069;-75
2023/06/06 01:23:10;;;;;;;15.65;6.30;;;;;;;14.87;100.00;101530.88;5000612;28;20819;-75
2023/06/06 01:25:40;;;;;;;17.67;6.30;;;;;;;14.84;100.00;101518.53;5012241;28;20516;-73
2023/06/06 01:28:12;;;;;;;14.02;6.03;;;;;;;14.82;100.00;101525.78;5006747;28;20057;-74
2023/06/06 01:30:41;;;;;;;14.52;6.28;;;;;;;14.77;100.00;101529.03;5006592;28;20057;-73
2023/06/06 01:33:13;;;;;;;20.80;6.78;;;;;;;14.65;100.00;101522.06;5015187;28;20073;-74
2023/06/06 01:35:55;;;;;;;18.17;6.57;;;;;;;14.61;100.00;101526.13;5013697;28;20080;-77
2023/06/06 01:38:30;;;;;;;15.18;6.20;;;;;;;14.55;100.00;101523.03;5012270;28;20069;-74
2023/06/06 01:41:00;;;;;;;17.05;6.88;;;;;;;14.50;100.00;101519.91;5010052;28;20504;-75
2023/06/06 01:43:30;;;;;;;15.90;6.25;;;;;;;14.42;100.00;101515.66;5022318;28;20053;-74
2023/06/06 01:45:58;;;;;;;17.35;6.70;;;;;;;14.41;100.00;101525.22;5007220;28;20500;-74
2023/06/06 01:48:25;;;;;;;16.75;6.78;;;;;;;14.35;100.00;101518.56;5008149;28;20070;-73
2023/06/06 01:50:51;;;;;;;16.48;6.75;;;;;;;14.35;100.00;101521.34;5008305;28;20078;-75
2023/06/06 01:53:18;;;;;;;17.08;6.85;;;;;;;14.29;100.00;101517.44;5010346;28;20125;-74
2023/06/06 01:55:45;;;;;;;17.13;7.90;;;;;;;14.24;100.00;101529.91;5011924;28;20050;-74
2023/06/06 01:58:12;;;;;;;14.82;6.60;;;;;;;14.18;100.00;101526.00;5007104;28;20050;-75
2023/06/06 02:00:38;;;;;;;17.75;6.18;;;;;;;14.11;100.00;101530.91;5004415;28;20149;-75
2023/06/06 02:03:05;;;;;;;20.35;7.88;;;;;;;14.09;100.00;101516.56;5006383;28;20054;-74
2023/06/06 02:05:31;;;;;;;16.27;7.20;;;;;;;14.05;100.00;101524.97;5011067;28;20052;-73
2023/06/06 02:07:59;;;;;;;16.15;6.85;;;;;;;14.01;100.00;101524.25;5009007;28;20396;-74
2023/06/06 02:10:25;;;;;;;15.77;6.20;;;;;;;13.99;100.00;101523.91;5015123;28;20371;-74
2023/06/06 02:12:52;;;;;;;18.63;7.07;;;;;;;13.92;100.00;101537.97;5030350;28;20069;-74
2023/06/06 02:15:19;;;;;;;17.13;7.07;;;;;;;13.88;100.00;101530.84;5006132;28;20098;-74
2023/06/06 02:17:46;;;;;;;14.45;5.75;;;;;;;13.84;100.00;101539.28;5005762;28;20092;-73
2023/06/06 02:20:12;;;;;;;19.17;6.60;;;;;;;13.79;100.00;101534.16;5007645;28;20077;-75
2023/06/06 02:22:39;;;;;;;17.08;7.90;;;;;;;13.78;100.00;101532.56;5012095;28;20046;-75
2023/06/06 02:25:06;;;;;;;17.27;7.75;;;;;;;13.74;100.00;101536.63;5015051;28;20053;-75
2023/06/06 02:27:34;;;;;;;16.45;7.10;;;;;;;13.70;100.00;101533.06;5006664;28;20112;-75
2023/06/06 02:30:08;;;;;;;17.55;7.03;;;;;;;13.67;100.00;101533.94;5006248;28;20515;-74
2023/06/06 02:32:35;;;;;;;17.45;6.95;;;;;;;13.62;100.00;101534.38;5019741;28;20050;-74
2023/06/06 02:35:03;;;;;;;20.17;7.97;;;;;;;13.56;100.00;101533.25;5015007;28;20061;-73
2023/06/06 02:37:30;;;;;;;19.17;7.35;;;;;;;13.49;100.00;101527.75;5010498;28;20428;-73
2023/06/06 02:39:56;;;;;;;21.83;7.80;;;;;;;13.47;100.00;101525.38;5009749;28;20046;-73
2023/06/06 02:42:23;;;;;;;16.67;7.43;;;;;;;13.44;100.00;101531.03;5021795;28;20760;-75
2023/06/06 02:44:50;;;;;;;18.80;7.00;;;;;;;13.31;100.00;101527.97;5030250;28;20085;-75
2023/06/06 02:47:16;;;;;;;17.33;7.13;;;;;;;13.34;100.00;101537.50;5008214;28;20490;-75
2023/06/06 02:49:45;;;;;;;22.42;8.45;;;;;;;13.26;100.00;101528.41;5016692;28;20053;-76
2023/06/06 02:52:11;;;;;;;21.65;7.55;;;;;;;13.20;100.00;101532.09;5027400;28;20475;-74
2023/06/06 02:54:38;;;;;;;19.77;7.82;;;;;;;13.17;100.00;101516.97;5009871;28;20045;-74
2023/06/06 02:57:05;;;;;;;21.15;7.53;;;;;;;13.19;100.00;101525.69;5019595;28;20058;-72
2023/06/06 02:59:31;;;;;;;19.10;8.10;;;;;;;13.17;100.00;101524.53;5021308;28;20132;-74
2023/06/06 03:01:58;;;;;;;17.33;6.88;;;;;;;13.14;100.00;101528.16;5022955;28;20152;-73
2023/06/06 03:04:25;;;;;;;20.15;7.53;;;;;;;13.09;100.00;101526.59;5020988;28;20042;-74
2023/06/06 03:06:51;;;;;;;18.33;7.57;;;;;;;13.06;100.00;101523.88;5021406;28;20056;-74
2023/06/06 03:09:19;;;;;;;15.77;7.32;;;;;;;13.04;100.00;101529.06;5016964;28;20136;-74
2023/06/06 03:11:45;;;;;;;20.25;8.82;;;;;;;13.02;100.00;101534.25;5009508;28;20512;-77
2023/06/06 03:14:12;;;;;;;18.25;7.05;;;;;;;12.96;100.00;101531.13;5009156;28;20096;-74
2023/06/06 03:16:39;;;;;;;24.13;7.88;;;;;;;12.92;100.00;101529.56;5011159;28;20467;-71
2023/06/06 03:19:06;;;;;;;20.02;7.60;;;;;;;12.91;100.00;101533.56;5013464;28;20068;-75
2023/06/06 03:21:36;;;;;;;22.13;7.68;;;;;;;12.92;100.00;101537.94;5015089;28;20610;-73
2023/06/06 03:24:04;;;;;;;20.35;7.35;;;;;;;12.92;100.00;101535.97;5033913;28;20064;-71
2023/06/06 03:26:31;;;;;;;19.10;7.63;;;;;;;12.92;100.00;101538.75;5015832;28;20046;-74
2023/06/06 03:28:58;;;;;;;19.60;8.25;;;;;;;12.89;100.00;101538.81;5009986;28;20050;-74
2023/06/06 03:31:29;;;;;;;20.08;8.07;;;;;;;12.87;100.00;101552.38;5016589;28;20061;-73
2023/06/06 03:33:56;;;;;;;20.15;7.38;;;;;;;12.81;100.00;101548.44;5011607;28;20060;-72
2023/06/06 03:36:23;;;;;;;18.35;7.90;;;;;;;12.79;100.00;101542.47;5015354;28;20089;-74
2023/06/06 03:38:49;;;;;;;18.58;7.78;;;;;;;12.77;100.00;101544.88;5012726;28;20132;-73
2023/06/06 03:41:16;;;;;;;17.77;7.43;;;;;;;12.79;100.00;101550.84;5017128;28;20049;-74
2023/06/06 03:43:43;;;;;;;19.75;7.72;;;;;;;12.77;100.00;101551.25;5017550;28;20139;-75
2023/06/06 03:46:10;;;;;;;22.58;8.98;;;;;;;12.77;100.00;101558.84;5008546;28;20076;-75
2023/06/06 03:48:36;;;;;;;20.75;8.48;;;;;;;12.78;100.00;101546.47;5019411;28;20053;-74
2023/06/06 03:51:03;;;;;;;18.48;7.68;;;;;;;12.75;100.00;101552.88;5012029;28;20089;-73
2023/06/06 03:53:29;;;;;;;17.55;7.43;;;;;;;12.74;100.00;101554.88;5013861;28;20045;-72
2023/06/06 03:55:58;;;;;;;25.50;8.80;;;;;;;12.71;100.00;101552.09;5024959;28;20084;-72
2023/06/06 03:58:25;;;;;;;17.75;7.35;;;;;;;12.74;100.00;101548.50;5008715;28;20050;-74
2023/06/06 04:00:52;;;;;;;22.13;7.82;;;;;;;12.68;100.00;101541.75;5007616;28;20079;-72
2023/06/06 04:03:19;;;;;;;17.98;7.47;;;;;;;12.69;100.00;101557.31;5001053;28;20127;-71
2023/06/06 04:05:47;;;;;;;20.50;7.70;;;;;;;12.71;100.00;101543.72;5033066;28;20053;-74
2023/06/06 04:08:13;;;;;;;21.02;8.02;;;;;;;12.64;100.00;101546.59;5009189;28;20080;-74
2023/06/06 04:10:40;;;;;;;19.05;8.30;;;;;;;12.63;100.00;101543.03;5008630;28;20427;-75
2023/06/06 04:13:06;;;;;;;19.17;8.93;;;;;;;12.60;100.00;101535.47;5008003;28;20073;-73
2023/06/06 04:15:34;;;;;;;18.85;7.97;;;;;;;12.65;100.00;101542.63;5014054;28;20140;-74
2023/06/06 04:18:01;;;;;;;20.77;7.50;;;;;;;12.63;100.00;101547.81;5009689;28;20139;-72
2023/06/06 04:20:28;;;;;;;19.30;8.05;;;;;;;12.60;100.00;101541.06;5008064;28;20056;-73
2023/06/06 04:22:55;;;;;;;23.23;9.07;;;;;;;12.64;100.00;101550.19;5008154;28;20060;-73
2023/06/06 04:25:21;;;;;;;33.40;8.93;;;;;;;12.63;100.00;101559.75;5023148;28;20500;-75
2023/06/06 04:27:48;;;;;;;21.27;7.72;;;;;;;12.63;100.00;101548.59;5008436;28;20158;-74
2023/06/06 04:30:22;;;;;;;20.15;8.05;;;;;;;12.66;100.00;101547.75;5016321;28;20088;-74
2023/06/06 04:32:51;;;;;;;20.15;8.27;;;;;;;12.61;100.00;101553.78;5006574;28;20050;-74
2023/06/06 04:35:18;;;;;;;20.98;8.90;;;;;;;12.62;100.00;101563.75;5024774;28;20100;-72
2023/06/06 04:37:47;;;;;;;20.35;8.93;;;;;;;12.64;100.00;101560.53;5015566;28;20057;-75
2023/06/06 04:40:15;;;;;;;19.38;8.63;;;;;;;12.64;100.00;101552.16;5020416;28;20054;-74
2023/06/06 04:42:42;;;;;;;22.02;8.27;;;;;;;12.68;100.00;101567.69;5011629;28;20052;-75
2023/06/06 04:45:09;;;;;;;18.38;8.70;;;;;;;12.67;100.00;101552.16;5005815;28;20132;-73
2023/06/06 04:47:40;;;;;;;20.77;8.32;;;;;;;12.62;100.00;101547.00;5010367;28;20049;-72
2023/06/06 04:50:08;;;;;;;18.77;7.90;;;;;;;12.65;100.00;101551.75;5016553;28;20542;-74
2023/06/06 04:52:35;;;;;;;21.00;9.32;;;;;;;12.68;100.00;101555.72;5013831;28;20155;-72
2023/06/06 04:55:03;;;;;;;22.55;9.38;;;;;;;12.69;100.00;101560.13;5013171;28;20056;-74
2023/06/06 04:57:30;;;;;;;26.25;8.48;;;;;;;12.71;100.00;101558.50;5021112;28;20049;-74
2023/06/06 04:59:56;;;;;;;22.20;9.25;;;;;;;12.74;100.00;101557.66;5026769;28;20374;-74
2023/06/06 05:02:26;;;;;;;22.10;8.90;;;;;;;12.74;100.00;101560.47;5016178;28;20092;-74
2023/06/06 05:04:56;;;;;;;21.05;9.05;;;;;;;12.87;100.00;101549.56;5010725;28;20052;-74
2023/06/06 05:07:23;;;;;;;22.85;8.80;;;;;;;12.86;100.00;101551.56;5007027;28;20047;-75
2023/06/06 05:09:52;;;;;;;18.92;8.95;;;;;;;12.89;100.00;101550.75;5007086;28;20053;-74
2023/06/06 05:12:18;;;;;;;25.45;8.77;;;;;;;12.94;100.00;101552.28;5007514;28;20570;-74
2023/06/06 05:14:45;;;;;;;22.17;8.40;;;;;;;12.97;100.00;101552.28;5008049;28;20045;-73
2023/06/06 05:17:17;;;;;;;18.30;8.13;;;;;;;13.04;100.00;101563.38;5038642;28;20166;-74
2023/06/06 05:19:45;;;;;;;20.58;8.48;;;;;;;13.09;100.00;101560.09;5006598;28;20056;-73
2023/06/06 05:22:15;;;;;;;21.80;9.73;;;;;;;13.12;100.00;101564.06;5005581;28;20058;-71
2023/06/06 05:24:42;;;;;;;19.10;9.02;;;;;;;13.13;100.00;101566.44;5016028;28;20112;-75
2023/06/06 05:27:09;;;;;;;21.65;9.50;;;;;;;13.20;100.00;101560.00;5023902;28;20103;-74
2023/06/06 05:29:36;;;;;;;23.27;8.95;;;;;;;13.24;100.00;101566.34;5003291;28;20104;-75
2023/06/06 05:32:03;;;;;;;19.02;9.35;;;;;;;13.31;100.00;101567.06;5003884;28;20488;-74
2023/06/06 05:34:30;;;;;;;20.35;8.85;;;;;;;13.34;100.00;101571.81;5015673;28;20052;-74
2023/06/06 05:36:57;;;;;;;21.10;8.23;;;;;;;13.41;100.00;101565.34;5018511;28;20061;-71
2023/06/06 05:39:24;;;;;;;19.67;8.57;;;;;;;13.47;100.00;101564.50;5027282;28;20053;-74
2023/06/06 05:41:54;;;;;;;20.50;8.63;;;;;;;13.49;100.00;101562.09;5026817;28;20058;-72
2023/06/06 05:44:22;;;;;;;23.67;8.75;;;;;;;13.52;100.00;101566.03;5006556;28;20056;-74
2023/06/06 05:46:54;;;;;;;21.58;10.20;;;;;;;13.53;100.00;101562.03;5005772;28;20061;-72
2023/06/06 05:49:22;;;;;;;22.83;8.60;;;;;;;13.56;100.00;101566.78;5004187;28;20132;-74
2023/06/06 05:51:49;;;;;;;24.10;9.60;;;;;;;13.61;100.00;101564.31;5014495;28;20133;-72
2023/06/06 05:54:16;;;;;;;21.45;8.50;;;;;;;13.68;100.00;101564.25;5013154;28;20096;-75
2023/06/06 05:56:43;;;;;;;20.08;8.80;;;;;;;13.63;100.00;101563.91;5014788;28;20077;-75
2023/06/06 05:59:10;;;;;;;20.75;9.25;;;;;;;13.65;100.00;101564.28;5009351;28;20096;-75
2023/06/06 06:01:39;;;;;;;23.60;9.90;;;;;;;13.68;100.00;101563.47;5009241;28;20120;-73
2023/06/06 06:04:07;;;;;;;23.48;11.25;;;;;;;13.70;100.00;101572.19;5015118;28;20393;-75
2023/06/06 06:06:35;;;;;;;25.33;10.57;;;;;;;13.73;100.00;101561.00;5006796;28;20053;-73
2023/06/06 06:09:03;;;;;;;25.45;9.27;;;;;;;13.78;100.00;101560.50;5006429;28;20092;-73
2023/06/06 06:11:30;;;;;;;21.40;8.80;;;;;;;13.89;100.00;101563.19;5011302;28;20785;-73
2023/06/06 06:13:58;;;;;;;23.13;9.68;;;;;;;13.94;100.00;101566.28;5008806;28;20045;-74
2023/06/06 06:16:25;;;;;;;21.08;9.13;;;;;;;14.03;100.00;101563.78;5019131;28;20128;-74
2023/06/06 06:18:51;;;;;;;19.75;8.73;;;;;;;14.10;100.00;101560.88;5014648;28;20054;-75
2023/06/06 06:21:19;;;;;;;22.88;9.80;;;;;;;14.17;100.00;101557.16;5011491;28;20424;-73
2023/06/06 06:23:47;;;;;;;22.88;9.68;;;;;;;14.19;100.00;101568.75;5023375;28;20042;-73
2023/06/06 06:26:14;;;;;;;23.15;9.63;;;;;;;14.23;100.00;101559.09;5018422;28;20060;-75
2023/06/06 06:28:40;;;;;;;22.48;9.32;;;;;;;14.32;100.00;101564.16;5015496;28;20069;-75
2023/06/06 06:31:07;;;;;;;21.25;8.52;;;;;;;14.37;100.00;101570.06;5017492;28;20149;-75
2023/06/06 06:33:34;;;;;;;20.55;8.32;;;;;;;14.42;100.00;101568.81;5009959;28;20096;-75
2023/06/06 06:36:01;;;;;;;22.00;8.18;;;;;;;14.52;100.00;101573.47;5010011;28;20566;-76
2023/06/06 06:38:27;;;;;;;19.98;9.30;;;;;;;14.58;100.00;101574.53;5023443;28;20045;-76
2023/06/06 06:40:54;;;;;;;23.15;9.38;;;;;;;14.64;100.00;101573.66;5011368;28;20172;-75
2023/06/06 06:43:21;;;;;;;22.00;10.20;;;;;;;14.73;100.00;101573.91;5012038;28;20136;-75
2023/06/06 06:45:47;;;;;;;22.92;10.57;;;;;;;14.79;100.00;101577.78;5012424;28;20073;-72
2023/06/06 06:48:14;;;;;;;21.95;9.40;;;;;;;14.87;100.00;101568.06;5012327;28;20108;-71
2023/06/06 06:50:41;;;;;;;19.25;9.48;;;;;;;14.89;100.00;101578.84;5015394;28;20132;-69
2023/06/06 06:53:09;;;;;;;27.05;10.18;;;;;;;14.93;100.00;101580.34;5017999;28;20050;-72
2023/06/06 06:55:38;;;;;;;19.75;9.57;;;;;;;14.95;100.00;101582.72;5019625;28;20104;-71
2023/06/06 06:58:06;;;;;;;23.95;10.27;;;;;;;15.01;100.00;101589.41;5009489;28;20085;-72
2023/06/06 07:00:33;;;;;;;24.08;9.02;;;;;;;15.10;100.00;101584.06;5008372;28;20061;-69
2023/06/06 07:03:03;;;;;;;20.35;8.43;;;;;;;15.14;100.00;101586.78;5009791;28;20145;-73
2023/06/06 07:05:31;;;;;;;22.83;10.05;;;;;;;15.23;100.00;101590.63;5009206;28;20448;-72
2023/06/06 07:07:59;;;;;;;20.92;10.18;;;;;;;15.32;100.00;101585.22;5009415;28;20509;-71
2023/06/06 07:10:28;;;;;;;28.00;9.73;;;;;;;15.39;100.00;101585.13;5009232;28;20054;-70
2023/06/06 07:12:56;;;;;;;28.15;10.73;;;;;;;15.47;100.00;101585.78;5015129;28;20062;-71
2023/06/06 07:15:22;;;;;;;24.88;9.80;;;;;;;15.55;100.00;101581.59;5009768;28;20077;-70
2023/06/06 07:17:50;;;;;;;21.63;10.18;;;;;;;15.62;100.00;101585.06;5020142;28;20050;-72
2023/06/06 07:20:21;;;;;;;20.17;9.07;;;;;;;15.68;100.00;101585.34;5011105;28;20096;-70
2023/06/06 07:22:49;;;;;;;24.10;9.80;;;;;;;15.74;100.00;101586.41;5017043;28;20095;-70
2023/06/06 07:25:16;;;;;;;24.65;9.63;;;;;;;15.84;100.00;101585.41;5009537;28;20046;-70
2023/06/06 07:27:43;;;;;;;20.52;8.88;;;;;;;15.93;100.00;101582.81;5007822;28;20188;-70
2023/06/06 07:30:14;;;;;;;25.48;9.75;;;;;;;16.02;100.00;101578.19;5004551;28;20160;-71
2023/06/06 07:32:46;;;;;;;20.50;9.73;;;;;;;16.14;100.00;101582.34;5007090;28;20133;-72
2023/06/06 07:35:20;;;;;;;21.10;9.00;;;;;;;16.23;100.00;101583.31;5009310;28;20069;-71
2023/06/06 07:37:47;;;;;;;20.75;8.90;;;;;;;16.29;100.00;101573.19;5013709;28;20081;-71
2023/06/06 07:40:14;;;;;;;22.10;9.80;;;;;;;16.34;100.00;101574.69;5009423;28;20069;-70
2023/06/06 07:42:42;;;;;;;25.23;9.35;;;;;;;16.41;100.00;101574.53;5012553;28;20108;-71
2023/06/06 07:45:09;;;;;;;26.40;9.82;;;;;;;16.50;100.00;101575.50;5012756;28;20049;-72
2023/06/06 07:47:36;;;;;;;21.52;9.18;;;;;;;16.54;100.00;101569.81;5015946;28;20538;-69
2023/06/06 07:50:03;;;;;;;21.38;9.07;;;;;;;16.62;100.00;101568.41;5007208;28;20049;-69
2023/06/06 07:52:32;;;;;;;19.98;8.07;;;;;;;16.63;100.00;101569.97;5012566;28;20491;-70
2023/06/06 07:54:59;;;;;;;25.33;9.98;;;;;;;16.72;100.00;101568.13;5007904;28;20078;-70
2023/06/06 07:57:27;;;;;;;27.17;9.70;;;;;;;16.70;100.00;101564.97;5020582;28;20072;-70
2023/06/06 07:59:54;;;;;;;19.13;8.38;;;;;;;16.83;100.00;101568.66;5021276;28;20054;-69
2023/06/06 08:02:20;;;;;;;23.50;8.63;;;;;;;16.96;100.00;101566.72;5009179;28;20079;-70
2023/06/06 08:04:47;;;;;;;26.00;10.05;;;;;;;17.10;100.00;101571.16;5015399;28;20455;-73
2023/06/06 08:07:14;;;;;;;21.30;9.77;;;;;;;17.22;100.00;101576.09;5017080;28;20053;-73
2023/06/06 08:09:42;;;;;;;22.67;8.23;;;;;;;17.24;100.00;101570.78;5008445;28;20172;-69
2023/06/06 08:12:10;;;;;;;21.40;9.07;;;;;;;17.33;100.00;101573.75;5012830;28;20393;-72
2023/06/06 08:14:37;;;;;;;21.02;9.30;;;;;;;17.42;100.00;101571.88;5016066;28;20101;-71
2023/06/06 08:17:04;;;;;;;20.23;8.95;;;;;;;17.45;100.00;101566.63;5011322;28;20072;-73
2023/06/06 08:19:31;;;;;;;18.13;8.85;;;;;;;17.55;100.00;101568.34;5010659;28;20530;-71
2023/06/06 08:21:58;;;;;;;21.67;9.02;;;;;;;17.67;100.00;101570.38;5014990;28;20053;-73
2023/06/06 08:24:24;;;;;;;17.40;7.97;;;;;;;17.75;100.00;101571.78;5009014;28;20455;-73
2023/06/06 08:26:51;;;;;;;21.52;9.00;;;;;;;17.81;100.00;101559.50;5006876;28;20161;-72
2023/06/06 08:29:17;;;;;;;19.23;7.63;;;;;;;17.87;100.00;101565.38;5005340;28;20077;-71
2023/06/06 08:31:44;;;;;;;20.65;9.10;;;;;;;17.93;100.00;101558.78;5013653;28;20849;-72
2023/06/06 08:34:11;;;;;;;20.15;7.80;;;;;;;18.00;100.00;101561.38;5010270;28;20137;-71
2023/06/06 08:36:37;;;;;;;24.92;8.85;;;;;;;18.04;100.00;101559.25;5009325;28;20104;-75
2023/06/06 08:39:06;;;;;;;18.33;8.13;;;;;;;18.19;100.00;101562.41;5017501;28;20759;-74
2023/06/06 08:41:33;;;;;;;18.00;8.30;;;;;;;18.36;100.00;101561.06;5013304;28;20049;-76
2023/06/06 08:44:03;;;;;;;23.48;8.02;;;;;;;18.50;100.00;101560.59;5008538;28;20103;-75
2023/06/06 08:46:33;;;;;;;18.23;7.45;;;;;;;18.59;100.00;101566.31;5008924;28;20141;-71
2023/06/06 08:49:04;;;;;;;18.80;8.60;;;;;;;18.76;100.00;101562.16;5004856;28;20045;-72
2023/06/06 08:51:31;;;;;;;22.55;8.05;;;;;;;18.85;100.00;101559.44;5018766;28;20519;-70
2023/06/06 08:54:00;;;;;;;20.65;7.95;;;;;;;18.92;100.00;101564.81;5006312;28;20100;-72
2023/06/06 08:56:27;;;;;;;20.00;7.85;;;;;;;18.99;100.00;101564.56;5010568;28;20670;-72
2023/06/06 08:58:54;;;;;;;19.02;8.23;;;;;;;19.12;100.00;101563.31;5020364;28;20050;-72
2023/06/06 09:01:21;;;;;;;21.10;7.78;;;;;;;19.22;100.00;101564.16;5008393;28;20051;-72
2023/06/06 09:03:53;;;;;;;17.73;7.40;;;;;;;19.35;100.00;101559.25;5018439;28;20056;-70
2023/06/06 09:06:20;;;;;;;19.23;6.97;;;;;;;19.53;100.00;101556.59;4999481;28;20038;-72
2023/06/06 09:08:49;;;;;;;17.25;7.70;;;;;;;19.63;100.00;101558.25;5007021;28;20057;-70
2023/06/06 09:11:17;;;;;;;18.27;7.25;;;;;;;19.66;100.00;101551.69;5010764;28;20136;-71
2023/06/06 09:13:45;;;;;;;20.08;7.82;;;;;;;19.73;100.00;101557.06;5007397;28;20049;-71
2023/06/06 09:16:14;;;;;;;16.98;7.05;;;;;;;19.84;100.00;101560.25;5006202;28;20079;-72
2023/06/06 09:18:41;;;;;;;17.90;7.07;;;;;;;19.99;100.00;101558.47;5034534;28;20053;-71
2023/06/06 09:21:08;;;;;;;17.33;6.90;;;;;;;;;;5007786;28;20050;-71
2023/06/06 09:23:35;;;;;;;16.40;6.65;;;;;;;20.08;100.00;101560.56;5020949;28;20053;-67
2023/06/06 09:26:03;;;;;;;17.20;7.18;;;;;;;20.22;100.00;101555.13;5018583;28;20134;-71
2023/06/06 09:28:40;;;;;;;17.77;7.72;;;;;;;20.32;100.00;101559.56;5013844;28;20049;-72
2023/06/06 09:31:30;;;;;;;14.98;6.75;;;;;;;20.44;100.00;101555.88;5012355;28;20045;-71
2023/06/06 09:33:58;;;;;;;16.77;7.38;;;;;;;20.52;100.00;101553.53;5007160;28;20130;-69
2023/06/06 09:36:27;;;;;;;16.02;7.07;;;;;;;20.58;100.00;101558.09;5006191;28;20054;-74
2023/06/06 09:39:08;;;;;;;16.02;7.28;;;;;;;20.58;100.00;101552.44;5005191;28;20108;-72
2023/06/06 09:41:39;;;;;;;22.90;7.43;;;;;;;20.60;100.00;101552.78;5012217;28;20125;-72
2023/06/06 09:44:23;;;;;;;14.68;6.40;;;;;;;20.61;100.00;101551.53;5016214;28;20484;-72
2023/06/06 09:46:57;;;;;;;18.52;6.53;;;;;;;20.73;100.00;101558.31;5010917;28;20061;-74
2023/06/06 09:49:23;;;;;;;16.13;6.93;;;;;;;20.82;100.00;101550.63;5009471;28;20062;-70
2023/06/06 09:51:53;;;;;;;14.80;6.05;;;;;;;21.01;100.00;101552.25;5017689;28;20061;-75
2023/06/06 09:54:22;;;;;;;14.40;5.78;;;;;;;21.16;100.00;101550.38;5018993;28;20053;-71
2023/06/06 09:56:50;;;;;;;16.80;7.07;;;;;;;21.31;100.00;101545.66;5010168;28;20649;-71
2023/06/06 09:59:18;;;;;;;14.75;6.80;;;;;;;21.41;100.00;101552.09;5013739;28;20050;-70
2023/06/06 10:01:50;;;;;;;15.45;7.07;;;;;;;21.43;100.00;101544.69;5022129;28;20111;-71
2023/06/06 10:04:17;;;;;;;14.18;6.82;;;;;;;21.50;100.00;101552.88;5014091;28;20050;-71
2023/06/06 10:06:46;;;;;;;18.10;6.72;;;;;;;21.60;100.00;101542.34;5023652;28;20049;-72
2023/06/06 10:09:15;;;;;;;15.52;6.18;;;;;;;21.70;100.00;101541.84;5013285;28;20504;-70
2023/06/06 10:11:42;;;;;;;15.27;5.70;;;;;;;21.83;100.00;101541.66;5019987;28;20049;-72
2023/06/06 10:14:10;;;;;;;17.15;6.97;;;;;;;21.98;100.00;101554.66;5006706;28;20157;-74
2023/06/06 10:16:37;;;;;;;17.23;6.85;;;;;;;22.14;100.00;101545.81;4997146;28;20045;-70
2023/06/06 10:19:03;;;;;;;16.02;7.15;;;;;;;22.22;100.00;101542.63;5009163;28;20054;-71
2023/06/06 10:21:31;;;;;;;17.60;6.95;;;;;;;22.37;100.00;101550.00;5006864;28;20112;-72
2023/06/06 10:23:57;;;;;;;16.55;6.25;;;;;;;22.50;100.00;101541.25;5010359;28;20488;-71
2023/06/06 10:26:30;;;;;;;17.20;6.45;;;;;;;22.49;100.00;101545.38;5008301;28;20127;-71
2023/06/06 10:29:05;;;;;;;14.32;6.30;;;;;;;22.61;100.00;101539.47;5002238;28;20050;-70
2023/06/06 10:31:50;;;;;;;17.67;5.57;;;;;;;22.72;100.00;101538.94;5029632;28;20050;-70
2023/06/06 10:34:21;;;;;;;14.85;6.70;;;;;;;22.82;100.00;101537.63;5013645;28;20042;-72
2023/06/06 10:36:48;;;;;;;16.80;6.30;;;;;;;22.89;100.00;101531.56;5024695;28;20081;-73
2023/06/06 10:39:18;;;;;;;16.35;5.75;;;;;;;23.07;100.00;101539.97;5020146;28;20592;-71
2023/06/06 10:41:58;;;;;;;13.65;6.40;;;;;;;23.28;100.00;101519.78;5020056;28;20077;-73
2023/06/06 10:44:37;;;;;;;12.90;5.80;;;;;;;23.31;100.00;101518.00;5015397;28;20116;-72
2023/06/06 10:47:28;;;;;;;13.27;5.40;;;;;;;23.38;100.00;101526.16;5016394;28;20058;-71
2023/06/06 10:50:07;;;;;;;13.43;6.57;;;;;;;23.58;100.00;101517.75;5002624;28;20081;-74
2023/06/06 10:52:58;;;;;;;14.25;6.80;;;;;;;23.61;100.00;101519.66;5010131;28;20050;-72
2023/06/06 10:55:24;;;;;;;11.02;5.25;;;;;;;23.75;100.00;101521.69;5008028;28;20112;-72
2023/06/06 10:58:18;;;;;;;13.23;5.50;;;;;;;23.89;100.00;101504.66;5010308;28;20516;-72
2023/06/06 11:00:48;;;;;;;14.02;6.18;;;;;;;24.07;100.00;101512.19;5003128;28;20101;-71
2023/06/06 11:03:35;;;;;;;12.25;5.03;;;;;;;24.23;100.00;101517.34;5016173;28;20140;-71
2023/06/06 11:06:18;;;;;;;12.95;6.00;;;;;;;24.33;100.00;101518.81;5004130;28;20524;-72
2023/06/06 11:08:58;;;;;;;14.60;6.50;;;;;;;24.39;100.00;101514.00;5008944;28;20543;-72
2023/06/06 11:11:28;;;;;;;12.85;5.28;;;;;;;24.57;100.00;101508.03;5009838;28;20054;-71
2023/06/06 11:14:03;;;;;;;10.77;4.97;;;;;;;24.77;100.00;101510.88;5010103;28;20054;-70
2023/06/06 11:16:43;;;;;;;18.20;5.68;;;;;;;24.97;100.00;101507.31;5014787;28;20585;-74